createdAt,value
2022-08-11T00:00:16.746Z,42.60
2022-08-11T00:02:52.664Z,42.50
2022-08-11T00:05:21.394Z,42.40
2022-08-11T00:07:53.765Z,42.70
2022-08-11T00:10:26.466Z,42.70
2022-08-11T00:13:00.120Z,42.80
2022-08-11T00:15:36.849Z,43.10
2022-08-11T00:18:04.011Z,44.40
2022-08-11T00:20:33.374Z,43.80
2022-08-11T00:23:06.174Z,44.40
2022-08-11T00:25:42.493Z,44.90
2022-08-11T00:28:32.031Z,44.50
2022-08-11T00:31:08.422Z,44.70
2022-08-11T00:33:44.627Z,45.00
2022-08-11T00:36:15.927Z,44.70
2022-08-11T00:38:45.200Z,45.00
2022-08-11T00:41:11.846Z,45.20
2022-08-11T00:43:53.759Z,45.20
2022-08-11T00:46:37.818Z,45.40
2022-08-11T00:49:23.868Z,45.30
2022-08-11T00:52:21.529Z,45.90
2022-08-11T00:54:59.867Z,45.60
2022-08-11T00:57:53.360Z,46.00
2022-08-11T01:00:23.301Z,45.90
2022-08-11T01:03:18.112Z,46.10
2022-08-11T01:06:23.345Z,46.50
2022-08-11T01:09:18.009Z,46.70
2022-08-11T01:12:18.841Z,46.20
2022-08-11T01:15:33.826Z,46.60
2022-08-11T01:18:22.407Z,46.50
2022-08-11T01:21:17.618Z,46.80
2022-08-11T01:24:05.738Z,47.10
2022-08-11T01:27:19.211Z,47.10
2022-08-11T01:30:20.627Z,47.70
2022-08-11T01:33:11.714Z,47.70
2022-08-11T01:36:42.170Z,48.10
2022-08-11T01:39:47.697Z,48.70
2022-08-11T01:43:02.490Z,48.80
2022-08-11T01:45:55.394Z,48.60
2022-08-11T01:48:40.938Z,49.20
2022-08-11T01:51:38.364Z,49.50
2022-08-11T01:54:20.483Z,49.80
2022-08-11T01:57:00.581Z,50.30
2022-08-11T01:59:38.110Z,50.00
2022-08-11T02:02:48.135Z,50.30
2022-08-11T02:05:45.966Z,50.20
2022-08-11T02:08:45.525Z,50.20
2022-08-11T02:11:37.638Z,50.70
2022-08-11T02:14:13.567Z,51.00
2022-08-11T02:17:02.328Z,51.20
2022-08-11T02:20:09.455Z,50.50
2022-08-11T02:24:04.468Z,51.00
2022-08-11T02:26:27.787Z,50.80
2022-08-11T02:29:13.641Z,51.20
2022-08-11T02:32:23.851Z,51.20
2022-08-11T02:35:02.348Z,51.10
2022-08-11T02:37:31.953Z,51.50
2022-08-11T02:39:58.551Z,51.80
2022-08-11T02:42:49.469Z,51.70
2022-08-11T02:45:31.495Z,51.20
2022-08-11T02:48:21.307Z,51.30
2022-08-11T02:50:55.077Z,51.60
2022-08-11T02:53:56.443Z,51.60
2022-08-11T02:56:52.988Z,52.10
2022-08-11T02:59:53.051Z,52.00
2022-08-11T03:02:31.318Z,52.10
2022-08-11T03:05:11.834Z,52.50
2022-08-11T03:08:08.205Z,52.80
2022-08-11T03:11:15.570Z,53.00
2022-08-11T03:14:24.360Z,52.80
2022-08-11T03:17:00.268Z,53.50
2022-08-11T03:20:00.021Z,53.70
2022-08-11T03:22:34.090Z,53.90
2022-08-11T03:25:19.611Z,53.80
2022-08-11T03:27:57.810Z,54.70
2022-08-11T03:30:41.944Z,54.70
2022-08-11T03:33:54.218Z,54.60
2022-08-11T03:37:15.147Z,54.90
2022-08-11T03:40:04.237Z,54.90
2022-08-11T03:42:46.337Z,55.30
2022-08-11T03:45:40.744Z,54.90
2022-08-11T03:48:22.881Z,55.50
2022-08-11T03:51:07.518Z,55.20
2022-08-11T03:54:00.497Z,55.30
2022-08-11T03:56:48.522Z,55.20
2022-08-11T03:59:28.673Z,55.10
2022-08-11T04:02:19.313Z,54.70
2022-08-11T04:05:34.183Z,54.50
2022-08-11T04:08:24.946Z,54.90
2022-08-11T04:11:28.693Z,55.10
2022-08-11T04:14:50.047Z,54.90
2022-08-11T04:17:36.720Z,55.90
2022-08-11T04:20:29.369Z,56.40
2022-08-11T04:24:35.990Z,56.10
2022-08-11T04:26:50.952Z,56.60
2022-08-11T04:30:03.345Z,56.60
2022-08-11T04:33:11.470Z,56.50
2022-08-11T04:36:09.656Z,56.20
2022-08-11T04:39:14.319Z,56.40
2022-08-11T04:42:18.212Z,56.40
2022-08-11T04:45:06.430Z,56.60
2022-08-11T04:48:37.605Z,57.00
2022-08-11T04:51:38.058Z,56.60
2022-08-11T04:54:45.289Z,56.70
2022-08-11T04:57:46.794Z,56.60
2022-08-11T05:00:36.430Z,56.70
2022-08-11T05:03:30.818Z,56.60
2022-08-11T05:06:29.630Z,56.20
2022-08-11T05:09:46.357Z,56.40
2022-08-11T05:12:36.341Z,57.20
2022-08-11T05:15:23.065Z,56.70
2022-08-11T05:18:27.504Z,56.90
2022-08-11T05:21:15.290Z,56.90
2022-08-11T05:24:05.949Z,57.20
2022-08-11T05:27:04.458Z,57.00
2022-08-11T05:30:05.890Z,57.20
2022-08-11T05:33:00.926Z,57.60
2022-08-11T05:36:00.040Z,57.50
2022-08-11T05:38:51.785Z,58.30
2022-08-11T05:41:40.807Z,58.00
2022-08-11T05:44:29.233Z,58.20
2022-08-11T05:47:15.380Z,58.90
2022-08-11T05:50:01.045Z,58.40
2022-08-11T05:52:49.233Z,57.80
2022-08-11T05:56:01.850Z,57.30
2022-08-11T05:58:42.251Z,56.60
2022-08-11T06:01:20.652Z,57.00
2022-08-11T06:04:12.733Z,56.20
2022-08-11T06:06:51.525Z,54.10
2022-08-11T06:09:48.275Z,55.10
2022-08-11T06:12:25.710Z,54.70
2022-08-11T06:14:57.910Z,54.20
2022-08-11T06:17:38.473Z,54.30
2022-08-11T06:20:12.998Z,53.50
2022-08-11T06:22:44.085Z,52.60
2022-08-11T06:25:13.093Z,52.30
2022-08-11T06:27:44.149Z,51.40
2022-08-11T06:30:14.054Z,49.60
2022-08-11T06:32:46.029Z,49.60
2022-08-11T06:35:50.076Z,49.90
2022-08-11T06:38:44.678Z,50.90
2022-08-11T06:41:30.590Z,50.00
2022-08-11T06:44:18.732Z,48.70
2022-08-11T06:46:51.357Z,48.60
2022-08-11T06:49:42.754Z,49.00
2022-08-11T06:52:45.188Z,47.30
2022-08-11T06:55:55.910Z,46.90
2022-08-11T06:58:22.539Z,46.70
2022-08-11T07:00:54.616Z,46.40
2022-08-11T07:03:22.274Z,46.50
2022-08-11T07:06:07.112Z,46.50
2022-08-11T07:09:07.615Z,46.50
2022-08-11T07:12:01.966Z,46.20
2022-08-11T07:14:49.837Z,45.90
2022-08-11T07:17:22.339Z,45.90
2022-08-11T07:20:14.833Z,45.90
2022-08-11T07:23:03.397Z,45.40
2022-08-11T07:25:50.685Z,45.20
2022-08-11T07:28:44.854Z,45.40
2022-08-11T07:31:17.605Z,45.60
2022-08-11T07:34:08.529Z,45.20
2022-08-11T07:36:44.516Z,45.00
2022-08-11T07:39:25.615Z,44.90
2022-08-11T07:41:54.117Z,45.10
2022-08-11T07:44:27.360Z,45.00
2022-08-11T07:47:16.851Z,44.90
2022-08-11T07:50:07.728Z,45.00
2022-08-11T07:52:38.048Z,44.50
2022-08-11T07:55:07.790Z,44.50
2022-08-11T07:58:15.974Z,44.20
2022-08-11T08:01:10.131Z,44.10
2022-08-11T08:03:57.050Z,44.00
2022-08-11T08:06:43.525Z,43.80
2022-08-11T08:09:29.430Z,43.40
2022-08-11T08:12:16.034Z,43.30
2022-08-11T08:15:01.615Z,43.20
2022-08-11T08:18:20.996Z,43.10
2022-08-11T08:20:42.703Z,42.60
2022-08-11T08:23:09.841Z,42.10
2022-08-11T08:25:39.797Z,41.80
2022-08-11T08:28:14.109Z,42.20
2022-08-11T08:30:48.109Z,42.20
2022-08-11T08:33:24.800Z,42.00
2022-08-11T08:36:12.160Z,41.20
2022-08-11T08:38:52.765Z,41.50
2022-08-11T08:41:32.176Z,41.50
2022-08-11T08:44:36.721Z,41.00
2022-08-11T08:46:56.631Z,40.90
2022-08-11T08:49:31.910Z,40.90
2022-08-11T08:52:26.184Z,41.30
2022-08-11T08:54:55.666Z,41.30
2022-08-11T08:57:29.017Z,40.80
2022-08-11T08:59:57.866Z,40.20
2022-08-11T09:02:33.936Z,40.60
2022-08-11T09:05:04.946Z,40.20
2022-08-11T09:07:38.589Z,40.20
2022-08-11T09:10:07.981Z,39.70
2022-08-11T09:12:38.891Z,39.40
2022-08-11T09:15:09.060Z,39.30
2022-08-11T09:17:46.979Z,39.30
2022-08-11T09:20:25.717Z,39.30
2022-08-11T09:24:07.456Z,38.60
2022-08-11T09:26:30.381Z,38.40
2022-08-11T09:28:58.996Z,38.70
2022-08-11T09:31:26.898Z,38.30
2022-08-11T09:33:55.197Z,38.60
2022-08-11T09:36:42.287Z,38.10
2022-08-11T09:39:31.219Z,38.00
2022-08-11T09:42:04.299Z,38.30
2022-08-11T09:44:50.117Z,38.10
2022-08-11T09:47:25.525Z,38.20
2022-08-11T09:50:00.149Z,37.70
2022-08-11T09:52:29.571Z,37.10
2022-08-11T09:54:56.765Z,37.10
2022-08-11T09:57:43.343Z,37.00
2022-08-11T10:00:14.088Z,36.70
2022-08-11T10:02:47.158Z,36.90
2022-08-11T10:05:41.169Z,37.00
2022-08-11T10:08:11.916Z,37.00
2022-08-11T10:10:41.109Z,35.60
2022-08-11T10:14:31.391Z,35.70
2022-08-11T10:16:15.574Z,35.80
2022-08-11T10:18:52.448Z,35.00
2022-08-11T10:21:43.944Z,34.70
2022-08-11T10:27:15.741Z,34.50
2022-08-11T10:30:01.470Z,34.70
2022-08-11T10:32:58.734Z,35.00
2022-08-11T10:35:29.599Z,34.70
2022-08-11T10:38:08.084Z,34.90
2022-08-11T10:40:39.413Z,34.80
2022-08-11T10:43:13.142Z,35.30
2022-08-11T10:46:01.495Z,35.10
2022-08-11T10:48:32.030Z,35.20
2022-08-11T10:51:14.518Z,35.30
2022-08-11T10:54:05.406Z,35.60
2022-08-11T10:56:55.442Z,35.40
2022-08-11T10:59:24.418Z,35.10
2022-08-11T11:01:53.335Z,35.50
2022-08-11T11:04:40.207Z,35.40
2022-08-11T11:07:31.482Z,34.80
2022-08-11T11:10:04.626Z,35.30
2022-08-11T11:12:53.813Z,35.50
2022-08-11T11:15:40.787Z,35.60
2022-08-11T11:18:16.174Z,35.80
2022-08-11T11:20:47.861Z,35.80
2022-08-11T11:23:23.948Z,36.00
2022-08-11T11:26:27.050Z,35.70
2022-08-11T11:29:12.888Z,35.70
2022-08-11T11:32:01.501Z,35.50
2022-08-11T11:35:04.130Z,34.90
2022-08-11T11:37:36.381Z,35.30
2022-08-11T11:40:12.525Z,35.10
2022-08-11T11:42:45.417Z,35.30
2022-08-11T11:45:24.104Z,35.50
2022-08-11T11:47:54.296Z,35.60
2022-08-11T11:50:31.793Z,34.60
2022-08-11T11:53:01.610Z,35.10
2022-08-11T11:55:29.473Z,35.10
2022-08-11T11:58:18.647Z,35.30
2022-08-11T12:01:05.282Z,35.00
2022-08-11T12:03:34.386Z,34.70
2022-08-11T12:06:03.297Z,34.90
2022-08-11T12:08:31.212Z,34.10
2022-08-11T12:11:29.480Z,34.30
2022-08-11T12:14:00.395Z,34.70
2022-08-11T12:16:34.558Z,34.70
2022-08-11T12:19:08.290Z,34.80
2022-08-11T12:21:37.097Z,34.20
2022-08-11T12:24:28.546Z,34.20
2022-08-11T12:27:17.630Z,34.50
2022-08-11T12:30:05.785Z,34.50
2022-08-11T12:32:36.270Z,34.70
2022-08-11T12:35:05.250Z,34.70
2022-08-11T12:37:36.438Z,34.50
2022-08-11T12:40:49.617Z,34.50
2022-08-11T12:43:41.005Z,34.50
2022-08-11T12:46:10.384Z,34.60
2022-08-11T12:49:03.253Z,34.50
2022-08-11T12:52:01.387Z,34.40
2022-08-11T12:54:43.646Z,34.50
2022-08-11T12:57:45.790Z,34.30
2022-08-11T13:00:34.691Z,34.50
2022-08-11T13:03:21.580Z,34.90
2022-08-11T13:05:52.307Z,34.70
2022-08-11T13:08:23.171Z,34.20
2022-08-11T13:11:09.665Z,34.10
2022-08-11T13:13:55.312Z,34.00
2022-08-11T13:16:27.878Z,33.70
2022-08-11T13:18:56.803Z,33.30
2022-08-11T13:21:24.113Z,34.10
2022-08-11T13:24:00.734Z,33.80
2022-08-11T13:26:48.081Z,33.50
2022-08-11T13:29:28.690Z,33.60
2022-08-11T13:31:59.882Z,33.60
2022-08-11T13:34:30.972Z,33.80
2022-08-11T13:37:01.534Z,34.00
2022-08-11T13:39:30.919Z,34.10
2022-08-11T13:42:00.435Z,34.10
2022-08-11T13:44:30.205Z,33.90
2022-08-11T13:47:01.231Z,33.40
2022-08-11T13:49:29.552Z,33.20
2022-08-11T13:51:58.446Z,33.60
2022-08-11T13:54:32.064Z,33.50
2022-08-11T13:57:09.111Z,33.90
2022-08-11T13:59:49.934Z,33.80
2022-08-11T14:02:29.346Z,33.30
2022-08-11T14:04:58.919Z,33.70
2022-08-11T14:07:35.326Z,33.60
2022-08-11T14:10:04.081Z,33.80
2022-08-11T14:12:53.047Z,34.00
2022-08-11T14:15:21.367Z,33.50
2022-08-11T14:17:56.068Z,34.10
2022-08-11T14:20:38.013Z,33.70
2022-08-11T14:23:08.062Z,33.60
2022-08-11T14:25:59.537Z,33.70
2022-08-11T14:28:30.943Z,33.30
2022-08-11T14:31:02.877Z,31.60
2022-08-11T14:33:58.062Z,32.30
2022-08-11T14:36:22.740Z,32.20
2022-08-11T14:38:50.082Z,32.40
2022-08-11T14:41:36.998Z,32.70
2022-08-11T14:44:43.662Z,32.20
2022-08-11T14:47:23.066Z,32.40
2022-08-11T14:49:58.278Z,32.10
2022-08-11T14:52:37.692Z,32.20
2022-08-11T14:55:23.906Z,32.30
2022-08-11T14:57:54.852Z,32.50
2022-08-11T15:00:24.051Z,32.40
2022-08-11T15:03:09.970Z,32.30
2022-08-11T15:05:56.092Z,32.60
2022-08-11T15:08:46.033Z,32.80
2022-08-11T15:11:33.946Z,33.00
2022-08-11T15:14:03.709Z,32.20
2022-08-11T15:16:49.597Z,32.70
2022-08-11T15:19:21.139Z,32.10
2022-08-11T15:22:08.239Z,32.00
2022-08-11T15:24:36.464Z,32.10
2022-08-11T15:27:30.867Z,32.20
2022-08-11T15:30:32.927Z,32.10
2022-08-11T15:33:30.722Z,32.00
2022-08-11T15:36:17.587Z,32.00
2022-08-11T15:38:55.305Z,32.00
2022-08-11T15:41:54.337Z,32.00
2022-08-11T15:45:04.652Z,32.40
2022-08-11T15:48:05.193Z,32.00
2022-08-11T15:50:37.532Z,32.00
2022-08-11T15:53:31.807Z,32.00
2022-08-11T15:56:00.086Z,31.60
2022-08-11T15:59:40.776Z,31.90
2022-08-11T16:01:59.408Z,32.20
2022-08-11T16:04:30.080Z,32.50
2022-08-11T16:07:11.532Z,32.40
2022-08-11T16:10:07.484Z,32.10
2022-08-11T16:12:41.546Z,32.00
2022-08-11T16:15:29.433Z,32.20
2022-08-11T16:18:06.039Z,32.00
2022-08-11T16:20:34.764Z,31.60
2022-08-11T16:23:04.693Z,32.00
2022-08-11T16:27:04.997Z,31.80
2022-08-11T16:28:23.494Z,31.90
2022-08-11T16:30:52.175Z,32.10
2022-08-11T16:33:48.772Z,32.40
2022-08-11T16:36:30.438Z,32.40
2022-08-11T16:38:59.310Z,32.30
2022-08-11T16:41:47.984Z,32.20
2022-08-11T16:44:37.773Z,32.20
2022-08-11T16:47:13.213Z,32.40
2022-08-11T16:49:52.570Z,32.00
2022-08-11T16:52:24.427Z,32.40
2022-08-11T16:54:52.674Z,32.60
2022-08-11T16:57:45.746Z,32.80
2022-08-11T17:00:16.282Z,33.50
2022-08-11T17:03:08.113Z,33.10
2022-08-11T17:05:55.241Z,33.00
2022-08-11T17:08:57.628Z,32.80
2022-08-11T17:11:47.773Z,33.30
2022-08-11T17:14:35.727Z,32.90
2022-08-11T17:17:06.124Z,32.60
2022-08-11T17:20:42.070Z,32.90
2022-08-11T17:22:42.441Z,33.10
2022-08-11T17:25:11.105Z,33.20
2022-08-11T17:27:39.678Z,33.30
2022-08-11T17:30:08.548Z,33.60
2022-08-11T17:33:00.713Z,33.40
2022-08-11T17:35:38.725Z,33.30
2022-08-11T17:38:13.228Z,33.60
2022-08-11T17:41:23.221Z,33.30
2022-08-11T17:44:09.657Z,33.10
2022-08-11T17:46:56.940Z,33.30
2022-08-11T17:49:24.950Z,33.20
2022-08-11T17:52:11.713Z,33.30
2022-08-11T17:55:01.282Z,33.40
2022-08-11T17:57:51.829Z,33.70
2022-08-11T18:00:18.577Z,33.90
2022-08-11T18:03:06.597Z,34.40
2022-08-11T18:05:36.974Z,34.50
2022-08-11T18:08:26.720Z,34.20
2022-08-11T18:11:22.365Z,34.20
2022-08-11T18:14:24.333Z,34.40
2022-08-11T18:17:09.627Z,34.60
2022-08-11T18:19:54.926Z,35.10
2022-08-11T18:22:46.848Z,35.00
2022-08-11T18:25:35.919Z,35.10
2022-08-11T18:28:27.242Z,36.30
2022-08-11T18:31:17.827Z,36.40
2022-08-11T18:34:09.844Z,36.80
2022-08-11T18:37:09.968Z,36.70
2022-08-11T18:40:12.011Z,37.40
2022-08-11T18:43:00.374Z,37.70
2022-08-11T18:45:46.294Z,37.70
2022-08-11T18:48:40.781Z,37.90
2022-08-11T18:51:36.799Z,38.10
2022-08-11T18:54:28.034Z,38.50
2022-08-11T18:57:16.367Z,38.80
2022-08-11T19:00:03.761Z,38.70
2022-08-11T19:02:50.748Z,39.10
2022-08-11T19:06:32.059Z,39.50
2022-08-11T19:08:49.673Z,39.70
2022-08-11T19:11:42.532Z,40.10
2022-08-11T19:14:30.739Z,40.40
2022-08-11T19:17:45.192Z,40.10
2022-08-11T19:20:27.329Z,40.30
2022-08-11T19:23:14.842Z,40.40
2022-08-11T19:26:02.273Z,40.90
2022-08-11T19:28:48.179Z,41.10
2022-08-11T19:31:34.205Z,40.90
2022-08-11T19:34:20.241Z,40.70
2022-08-11T19:37:06.816Z,41.60
2022-08-11T19:39:53.396Z,41.60
2022-08-11T19:42:39.996Z,41.80
2022-08-11T19:45:26.751Z,41.60
2022-08-11T19:48:31.192Z,41.70
2022-08-11T19:51:19.053Z,42.00
2022-08-11T19:54:07.320Z,42.80
2022-08-11T19:56:53.816Z,41.80
2022-08-11T19:59:41.227Z,42.20
2022-08-11T20:02:26.762Z,42.50
2022-08-11T20:05:12.256Z,42.80
2022-08-11T20:07:58.578Z,41.80
2022-08-11T20:10:45.988Z,41.80
2022-08-11T20:13:33.544Z,42.50
2022-08-11T20:16:21.284Z,41.70
2022-08-11T20:19:09.693Z,41.20
2022-08-11T20:21:58.340Z,40.90
2022-08-11T20:24:43.826Z,40.70
2022-08-11T20:27:30.890Z,40.00
2022-08-11T20:30:18.800Z,39.00
2022-08-11T20:33:04.911Z,39.20
2022-08-11T20:35:52.839Z,38.90
2022-08-11T20:38:40.228Z,38.60
2022-08-11T20:41:28.803Z,38.50
2022-08-11T20:44:16.840Z,39.80
2022-08-11T20:47:04.392Z,40.20
2022-08-11T20:49:59.908Z,40.10
2022-08-11T20:52:50.441Z,39.20
2022-08-11T20:55:51.151Z,39.40
2022-08-11T21:01:46.176Z,39.30
2022-08-11T21:04:32.922Z,39.60
2022-08-11T21:07:23.661Z,40.10
2022-08-11T21:10:23.346Z,39.90
2022-08-11T21:13:26.458Z,39.40
2022-08-11T21:16:26.163Z,39.80
2022-08-11T21:19:18.670Z,39.80
2022-08-11T21:22:06.513Z,39.30
2022-08-11T21:24:52.614Z,38.80
2022-08-11T21:27:40.050Z,38.40
2022-08-11T21:30:26.091Z,39.00
2022-08-11T21:33:12.605Z,38.80
2022-08-11T21:35:58.492Z,38.60
2022-08-11T21:38:45.485Z,39.40
2022-08-11T21:41:32.974Z,38.50
2022-08-11T21:44:18.947Z,38.60
2022-08-11T21:47:05.452Z,38.50
2022-08-11T21:49:52.266Z,38.50
2022-08-11T21:52:38.028Z,38.80
2022-08-11T21:55:23.576Z,38.60
2022-08-11T21:58:10.719Z,38.60
2022-08-11T22:00:56.070Z,38.90
2022-08-11T22:03:50.327Z,38.90
2022-08-11T22:06:36.875Z,39.00
2022-08-11T22:09:22.335Z,38.90
2022-08-11T22:12:30.107Z,38.70
2022-08-11T22:15:14.404Z,38.40
2022-08-11T22:18:00.078Z,38.70
2022-08-11T22:20:46.393Z,39.00
2022-08-11T22:23:36.970Z,38.90
2022-08-11T22:26:23.207Z,39.20
2022-08-11T22:29:09.851Z,39.00
2022-08-11T22:31:57.413Z,39.50
2022-08-11T22:34:51.833Z,39.40
2022-08-11T22:37:40.298Z,39.20
2022-08-11T22:40:27.881Z,39.20
2022-08-11T22:43:13.347Z,39.40
2022-08-11T22:45:58.861Z,39.40
2022-08-11T22:48:48.177Z,39.50
2022-08-11T22:51:34.386Z,39.60
2022-08-11T22:54:21.665Z,39.60
2022-08-11T22:57:07.556Z,39.60
2022-08-11T22:59:55.140Z,39.60
2022-08-11T23:02:40.860Z,39.60
2022-08-11T23:05:27.185Z,39.70
2022-08-11T23:08:15.193Z,39.70
2022-08-11T23:11:01.208Z,40.40
2022-08-11T23:13:48.813Z,40.10
2022-08-11T23:16:35.129Z,39.90
2022-08-11T23:20:06.485Z,39.80
2022-08-11T23:22:49.326Z,40.30
2022-08-11T23:25:32.779Z,39.90
2022-08-11T23:28:20.210Z,40.00
2022-08-11T23:31:08.370Z,40.00
2022-08-11T23:33:58.356Z,40.60
2022-08-11T23:36:47.067Z,40.40
2022-08-11T23:39:33.850Z,40.40
2022-08-11T23:42:19.521Z,40.80
2022-08-11T23:45:07.169Z,41.30
2022-08-11T23:47:57.838Z,41.30
2022-08-11T23:50:43.789Z,41.20
2022-08-11T23:53:30.917Z,41.40
2022-08-11T23:56:17.303Z,41.30
2022-08-11T23:59:09.100Z,41.70
